createdAt,value
2022-09-22T00:04:33.437Z,101082.25
2022-09-22T00:09:36.203Z,101093.88
2022-09-22T00:14:39.861Z,101090.38
2022-09-22T00:19:43.941Z,101085.19
2022-09-22T00:24:46.579Z,101079.22
2022-09-22T00:29:50.842Z,101083.22
2022-09-22T00:34:54.730Z,101082.00
2022-09-22T00:39:57.359Z,101078.22
2022-09-22T00:45:00.123Z,101073.66
2022-09-22T00:50:15.301Z,101080.44
2022-09-22T00:55:21.766Z,101079.84
2022-09-22T01:00:24.416Z,101077.91
2022-09-22T01:05:30.221Z,101075.16
2022-09-22T01:10:36.045Z,101073.22
2022-09-22T01:15:43.701Z,101070.91
2022-09-22T01:21:23.047Z,101075.34
2022-09-22T01:26:42.760Z,101060.94
2022-09-22T01:31:51.410Z,101065.47
2022-09-22T01:37:00.866Z,101055.63
2022-09-22T01:42:06.363Z,101051.34
2022-09-22T01:47:12.810Z,101057.94
2022-09-22T01:52:18.650Z,101043.06
2022-09-22T01:57:24.060Z,101042.50
2022-09-22T02:02:31.073Z,101035.84
2022-09-22T02:07:37.259Z,101045.63
2022-09-22T02:12:40.281Z,101026.69
2022-09-22T02:17:44.313Z,101037.19
2022-09-22T02:22:47.251Z,101029.88
2022-09-22T02:27:51.261Z,101030.03
2022-09-22T02:32:57.575Z,101041.22
2022-09-22T02:38:04.689Z,101044.63
2022-09-22T02:43:09.497Z,101040.00
2022-09-22T02:48:16.504Z,101045.97
2022-09-22T02:53:19.342Z,101039.69
2022-09-22T02:58:21.921Z,101039.88
2022-09-22T03:03:25.865Z,101038.59
2022-09-22T03:08:28.504Z,101039.31
2022-09-22T03:13:31.197Z,101031.94
2022-09-22T03:18:35.179Z,101031.75
2022-09-22T03:23:37.823Z,101021.88
2022-09-22T03:28:40.631Z,101015.47
2022-09-22T03:33:48.153Z,101025.28
2022-09-22T03:38:53.282Z,101031.16
2022-09-22T03:43:57.023Z,101031.53
2022-09-22T03:49:03.125Z,101024.88
2022-09-22T03:54:06.636Z,101029.41
2022-09-22T03:59:10.335Z,101027.63
2022-09-22T04:04:14.443Z,101028.34
2022-09-22T04:09:20.681Z,101020.97
2022-09-22T04:14:23.313Z,101018.09
2022-09-22T04:19:27.319Z,101022.56
2022-09-22T04:24:30.108Z,101018.50
2022-09-22T04:29:32.680Z,101019.94
2022-09-22T04:34:36.775Z,101009.72
2022-09-22T04:39:39.404Z,101010.78
2022-09-22T04:44:42.175Z,101012.25
2022-09-22T04:49:46.110Z,101009.88
2022-09-22T04:54:48.735Z,101013.81
2022-09-22T04:59:51.334Z,101019.84
2022-09-22T05:04:55.572Z,101024.50
2022-09-22T05:09:59.093Z,101015.81
2022-09-22T05:15:01.787Z,101029.50
2022-09-22T05:20:07.758Z,101032.84
2022-09-22T05:25:11.988Z,101037.59
2022-09-22T05:30:15.019Z,101040.31
2022-09-22T05:35:20.462Z,101052.22
2022-09-22T05:40:26.080Z,101044.97
2022-09-22T05:45:28.863Z,101052.84
2022-09-22T05:50:32.865Z,101060.81
2022-09-22T05:55:35.994Z,101056.50
2022-09-22T06:00:39.036Z,101057.53
2022-09-22T06:05:45.002Z,101050.53
2022-09-22T06:10:49.045Z,101063.84
2022-09-22T06:15:51.699Z,101057.03
2022-09-22T06:20:56.553Z,101066.44
2022-09-22T06:25:59.297Z,101062.81
2022-09-22T06:31:02.516Z,101064.41
2022-09-22T06:36:09.331Z,101053.88
2022-09-22T06:41:11.925Z,101056.72
2022-09-22T06:46:18.497Z,101056.78
2022-09-22T06:51:23.858Z,101056.06
2022-09-22T06:56:28.036Z,101064.25
2022-09-22T07:01:31.069Z,101057.41
2022-09-22T07:06:37.107Z,101065.47
2022-09-22T07:11:40.523Z,101066.63
2022-09-22T07:16:44.271Z,101063.16
2022-09-22T07:21:48.279Z,101066.56
2022-09-22T07:26:51.244Z,101065.03
2022-09-22T07:31:56.141Z,101056.59
2022-09-22T07:37:00.814Z,101065.22
2022-09-22T07:42:03.529Z,101065.97
2022-09-22T07:47:06.230Z,101057.25
2022-09-22T07:52:10.904Z,101066.13
2022-09-22T07:57:13.832Z,101065.78
2022-09-22T08:02:16.769Z,101056.94
2022-09-22T08:07:20.758Z,101063.63
2022-09-22T08:12:24.129Z,101061.28
2022-09-22T08:17:26.977Z,101057.44
2022-09-22T08:22:30.940Z,101058.13
2022-09-22T08:27:33.969Z,101063.84
2022-09-22T08:32:40.186Z,101063.59
2022-09-22T08:37:44.390Z,101065.22
2022-09-22T08:42:52.545Z,101059.97
2022-09-22T08:48:15.009Z,101073.03
2022-09-22T08:53:22.830Z,101064.97
2022-09-22T08:58:32.555Z,101061.78
2022-09-22T09:03:50.128Z,101068.38
2022-09-22T09:09:22.409Z,101064.16
2022-09-22T09:14:38.903Z,101056.75
2022-09-22T09:19:43.658Z,101061.56
2022-09-22T09:30:17.744Z,101055.44
2022-09-22T09:35:24.648Z,101054.00
2022-09-22T09:40:28.901Z,101055.78
2022-09-22T09:45:37.244Z,101048.13
2022-09-22T09:50:39.903Z,101038.78
2022-09-22T09:55:43.822Z,101036.78
2022-09-22T10:00:58.320Z,101041.91
2022-09-22T10:06:03.032Z,101038.47
2022-09-22T10:11:07.773Z,101043.31
2022-09-22T10:16:33.434Z,101042.78
2022-09-22T10:21:37.585Z,101029.16
2022-09-22T10:26:55.109Z,101029.94
2022-09-22T10:32:03.101Z,101018.78
2022-09-22T10:37:10.550Z,101021.50
2022-09-22T10:42:27.315Z,101017.13
2022-09-22T10:47:44.324Z,101026.72
2022-09-22T10:52:51.173Z,101032.19
2022-09-22T10:58:27.175Z,101025.31
2022-09-22T11:03:44.102Z,101031.16
2022-09-22T11:09:13.006Z,101015.78
2022-09-22T11:14:24.746Z,101017.06
2022-09-22T11:19:39.344Z,101014.06
2022-09-22T11:24:51.598Z,101004.97
2022-09-22T11:30:11.220Z,101008.09
2022-09-22T11:35:29.018Z,101007.97
2022-09-22T11:40:43.101Z,100998.53
2022-09-22T11:45:50.232Z,100991.41
2022-09-22T11:51:14.051Z,100991.50
2022-09-22T11:56:27.136Z,100973.53
2022-09-22T12:01:33.526Z,100971.75
2022-09-22T12:06:41.269Z,100958.34
2022-09-22T12:11:44.180Z,100959.03
2022-09-22T12:16:51.441Z,100958.03
2022-09-22T12:21:59.647Z,100941.94
2022-09-22T12:27:11.045Z,100945.84
2022-09-22T12:32:23.891Z,100941.28
2022-09-22T12:37:29.750Z,100936.84
2022-09-22T12:42:35.245Z,100939.59
2022-09-22T12:47:40.790Z,100932.22
2022-09-22T12:53:02.491Z,100930.41
2022-09-22T12:58:21.071Z,100927.66
2022-09-22T13:03:47.833Z,100931.38
2022-09-22T13:09:18.145Z,100929.09
2022-09-22T13:15:00.381Z,100922.66
2022-09-22T13:20:16.008Z,100922.03
2022-09-22T13:25:29.998Z,100923.72
2022-09-22T13:30:40.851Z,100904.66
2022-09-22T13:35:45.666Z,100919.47
2022-09-22T13:40:49.803Z,100922.44
2022-09-22T13:45:53.114Z,100916.03
2022-09-22T13:50:59.661Z,100908.03
2022-09-22T13:56:03.765Z,100896.91
2022-09-22T14:01:15.181Z,100898.00
2022-09-22T14:06:21.906Z,100885.66
2022-09-22T14:11:32.037Z,100892.06
2022-09-22T14:16:37.108Z,100889.69
2022-09-22T14:21:49.242Z,100885.38
2022-09-22T14:26:52.893Z,100878.25
2022-09-22T14:32:00.448Z,100870.53
2022-09-22T14:37:16.492Z,100886.31
2022-09-22T14:42:22.903Z,100882.28
2022-09-22T14:47:27.821Z,100872.13
2022-09-22T14:52:33.765Z,100864.34
2022-09-22T14:57:36.470Z,100859.81
2022-09-22T15:02:41.221Z,100861.47
2022-09-22T15:07:49.147Z,100854.59
2022-09-22T15:12:52.098Z,100840.47
2022-09-22T15:18:19.116Z,100843.56
2022-09-22T15:23:26.156Z,100838.03
2022-09-22T15:28:28.959Z,100841.44
2022-09-22T15:33:32.677Z,100832.38
2022-09-22T15:38:38.686Z,100830.63
2022-09-22T15:43:41.707Z,100831.63
2022-09-22T15:48:44.377Z,100839.63
2022-09-22T15:53:48.272Z,100843.75
2022-09-22T15:58:52.225Z,100845.16
2022-09-22T16:04:00.877Z,100853.00
2022-09-22T16:09:05.303Z,100854.69
2022-09-22T16:14:07.985Z,100839.66
2022-09-22T16:19:10.660Z,100843.75
2022-09-22T16:24:15.025Z,100827.66
2022-09-22T16:29:17.819Z,100834.03
2022-09-22T16:34:21.165Z,100823.97
2022-09-22T16:39:25.129Z,100827.44
2022-09-22T16:44:27.841Z,100824.28
2022-09-22T16:49:33.350Z,100829.72
2022-09-22T16:54:38.676Z,100812.47
2022-09-22T16:59:41.354Z,100818.19
2022-09-22T17:04:44.185Z,100818.22
2022-09-22T17:09:48.112Z,100814.91
2022-09-22T17:14:50.689Z,100827.31
2022-09-22T17:19:54.230Z,100830.41
2022-09-22T17:24:58.509Z,100827.38
2022-09-22T17:30:01.269Z,100826.00
2022-09-22T17:35:04.191Z,100834.34
2022-09-22T17:40:11.219Z,100834.16
2022-09-22T17:45:18.105Z,100830.78
2022-09-22T17:50:38.249Z,100836.13
2022-09-22T17:55:42.375Z,100825.00
2022-09-22T18:00:45.576Z,100824.31
2022-09-22T18:05:52.655Z,100827.47
2022-09-22T18:10:56.784Z,100835.63
2022-09-22T18:16:19.505Z,100830.66
2022-09-22T18:21:22.301Z,100829.63
2022-09-22T18:26:38.570Z,100838.63
2022-09-22T18:31:41.985Z,100836.19
2022-09-22T18:36:45.299Z,100839.59
2022-09-22T18:41:49.751Z,100828.72
2022-09-22T18:46:54.400Z,100841.50
2022-09-22T18:51:58.254Z,100842.81
2022-09-22T18:57:07.336Z,100849.34
2022-09-22T19:02:12.234Z,100841.66
2022-09-22T19:07:32.495Z,100844.38
2022-09-22T19:12:39.544Z,100846.59
2022-09-22T19:17:43.997Z,100847.34
2022-09-22T19:22:49.306Z,100846.41
2022-09-22T19:27:53.845Z,100840.38
2022-09-22T19:32:56.747Z,100846.38
2022-09-22T19:37:59.860Z,100842.06
2022-09-22T19:43:06.560Z,100844.19
2022-09-22T19:48:10.036Z,100845.06
2022-09-22T19:53:12.818Z,100836.75
2022-09-22T19:58:16.831Z,100834.97
2022-09-22T20:03:20.567Z,100830.53
2022-09-22T20:08:26.067Z,100830.25
2022-09-22T20:13:47.904Z,100831.25
2022-09-22T20:18:50.766Z,100824.06
2022-09-22T20:23:53.776Z,100827.69
2022-09-22T20:28:59.037Z,100827.59
2022-09-22T20:34:01.864Z,100825.78
2022-09-22T20:39:05.525Z,100814.44
2022-09-22T20:44:12.086Z,100817.34
2022-09-22T20:49:15.283Z,100821.91
2022-09-22T20:54:18.119Z,100818.06
2022-09-22T20:59:22.157Z,100820.84
2022-09-22T21:04:24.961Z,100830.22
2022-09-22T21:09:45.260Z,100824.00
2022-09-22T21:14:49.320Z,100824.69
2022-09-22T21:19:52.005Z,100824.13
2022-09-22T21:24:54.740Z,100821.50
2022-09-22T21:29:59.246Z,100825.38
2022-09-22T21:35:02.456Z,100818.59
2022-09-22T21:40:05.673Z,100818.47
2022-09-22T21:45:10.669Z,100817.63
2022-09-22T21:50:14.026Z,100813.31
2022-09-22T21:55:16.812Z,100807.75
2022-09-22T22:00:36.833Z,100813.25
2022-09-22T22:05:43.786Z,100808.97
2022-09-22T22:10:46.351Z,100816.53
2022-09-22T22:15:50.301Z,100816.84
2022-09-22T22:20:58.967Z,100813.66
2022-09-22T22:26:04.875Z,100812.16
2022-09-22T22:31:10.541Z,100807.28
2022-09-22T22:36:14.704Z,100797.31
2022-09-22T22:41:17.996Z,100796.16
2022-09-22T22:46:22.040Z,100794.38
2022-09-22T22:51:25.222Z,100793.13
2022-09-22T22:56:29.766Z,100789.09
2022-09-22T23:01:33.966Z,100793.50
2022-09-22T23:06:38.928Z,100791.16
2022-09-22T23:11:42.682Z,100788.34
2022-09-22T23:16:49.471Z,100790.94
2022-09-22T23:21:52.188Z,100785.94
2022-09-22T23:26:55.154Z,100772.38
2022-09-22T23:31:59.249Z,100770.53
2022-09-22T23:37:01.846Z,100755.38
2022-09-22T23:42:04.907Z,100755.94
2022-09-22T23:47:12.229Z,100759.22
2022-09-22T23:52:18.172Z,100752.47
2022-09-22T23:57:20.895Z,100753.16
